Time;durP1;ratioP1;P1;durP2;ratioP2;P2;SDS_P1;SDS_P2;PMS_P1;PMS_P2;Temp;Humidity;BMP_temperature;BMP_pressure;BME280_temperature;BME280_humidity;BME280_pressure;Samples;Min_cycle;Max_cycle;Signal;HPM_P1;HPM_P2
2021/07/25 00:02:23;;;;;;;11.07;9.97;;;21.00;99.90;;;;;;4983729;28;20577;-81
2021/07/25 00:04:55;;;;;;;10.23;9.23;;;21.00;99.90;;;;;;4984322;28;20650;-81
2021/07/25 00:07:24;;;;;;;11.33;9.57;;;21.10;99.90;;;;;;4968653;28;20210;-84
2021/07/25 00:09:51;;;;;;;10.67;9.77;;;21.10;99.90;;;;;;4981802;28;20927;-84
2021/07/25 00:12:17;;;;;;;10.83;9.87;;;21.10;99.90;;;;;;4963187;28;20630;-85
2021/07/25 00:14:42;;;;;;;10.70;9.80;;;21.20;99.90;;;;;;4978099;28;21149;-85
2021/07/25 00:17:08;;;;;;;10.70;9.80;;;21.20;99.90;;;;;;4977854;28;20579;-84
2021/07/25 00:19:37;;;;;;;9.20;8.33;;;21.20;99.90;;;;;;4977579;28;20183;-85
2021/07/25 00:22:04;;;;;;;8.57;7.83;;;21.20;99.90;;;;;;4977831;28;21162;-79
2021/07/25 00:24:33;;;;;;;9.00;8.20;;;21.30;99.90;;;;;;4977304;28;20665;-80
2021/07/25 00:27:00;;;;;;;9.40;8.60;;;21.30;99.90;;;;;;4947752;28;20579;-80
2021/07/25 00:29:31;;;;;;;8.97;8.20;;;21.30;99.90;;;;;;4975963;28;20583;-80
2021/07/25 00:32:05;;;;;;;8.87;8.17;;;21.40;99.90;;;;;;4958876;28;20679;-80
2021/07/25 00:34:32;;;;;;;8.80;8.00;;;21.30;99.90;;;;;;4976642;28;20582;-80
2021/07/25 00:36:59;;;;;;;8.17;7.37;;;21.40;99.90;;;;;;4976216;28;20562;-79
2021/07/25 00:39:25;;;;;;;7.77;7.07;;;21.40;99.90;;;;;;4961069;28;20590;-80
2021/07/25 00:41:52;;;;;;;8.20;7.50;;;21.40;99.90;;;;;;4984036;28;20649;-80
2021/07/25 00:44:18;;;;;;;7.73;6.90;;;21.40;99.90;;;;;;4978434;28;20662;-80
2021/07/25 00:46:45;;;;;;;7.63;6.90;;;21.40;99.90;;;;;;4980303;28;20674;-80
2021/07/25 00:49:13;;;;;;;7.93;7.10;;;21.40;99.90;;;;;;4990520;28;21337;-80
2021/07/25 00:51:39;;;;;;;7.57;6.90;;;21.40;99.90;;;;;;4975544;28;20630;-80
2021/07/25 00:54:04;;;;;;;7.60;6.90;;;21.40;99.90;;;;;;4983645;28;21149;-80
2021/07/25 00:56:30;;;;;;;7.73;6.93;;;21.40;99.90;;;;;;4986651;28;20570;-80
2021/07/25 00:58:56;;;;;;;10.00;7.50;;;21.40;99.90;;;;;;4995569;28;20926;-80
2021/07/25 01:01:25;;;;;;;6.33;5.73;;;21.40;99.90;;;;;;4997069;28;20598;-80
2021/07/25 01:03:51;;;;;;;7.20;6.50;;;21.40;99.90;;;;;;4984139;28;20171;-80
2021/07/25 01:06:26;;;;;;;8.63;7.90;;;21.50;99.90;;;;;;4977998;28;20912;-80
2021/07/25 01:09:02;;;;;;;6.83;6.20;;;21.50;99.90;;;;;;4968947;28;21048;-85
2021/07/25 01:11:34;;;;;;;7.87;6.63;;;21.40;99.90;;;;;;5005565;28;20629;-85
2021/07/25 01:14:03;;;;;;;7.50;6.90;;;21.50;99.90;;;;;;4989232;28;20581;-85
2021/07/25 01:16:29;;;;;;;7.53;6.93;;;21.50;99.90;;;;;;4989167;28;20576;-85
2021/07/25 01:19:04;;;;;;;7.53;6.83;;;21.50;99.90;;;;;;5008730;28;20566;-82
2021/07/25 01:21:30;;;;;;;7.07;6.47;;;21.50;99.90;;;;;;4978345;28;20627;-80
2021/07/25 01:23:58;;;;;;;7.27;6.67;;;21.50;99.90;;;;;;4978890;28;20676;-80
2021/07/25 01:26:28;;;;;;;7.73;7.00;;;21.50;99.90;;;;;;4995412;28;20187;-80
2021/07/25 01:28:56;;;;;;;7.17;6.53;;;21.60;99.90;;;;;;4977206;28;20918;-80
2021/07/25 01:31:30;;;;;;;5.97;5.37;;;21.60;99.90;;;;;;4976950;28;20629;-80
2021/07/25 01:33:59;;;;;;;7.17;6.47;;;21.60;99.90;;;;;;4977351;28;20566;-80
2021/07/25 01:36:25;;;;;;;7.73;6.10;;;21.60;99.90;;;;;;4994596;28;20632;-80
2021/07/25 01:38:53;;;;;;;8.60;6.20;;;21.60;99.90;;;;;;4998236;28;20971;-85
2021/07/25 01:41:19;;;;;;;6.20;5.70;;;21.60;99.90;;;;;;4994569;28;20613;-85
2021/07/25 01:43:47;;;;;;;7.20;6.60;;;21.60;99.90;;;;;;5011337;28;20572;-85
2021/07/25 01:46:14;;;;;;;7.33;5.63;;;21.50;99.90;;;;;;5000824;28;20171;-85
2021/07/25 01:48:42;;;;;;;6.50;5.90;;;21.50;99.90;;;;;;4997016;28;20624;-85
2021/07/25 01:51:09;;;;;;;8.50;6.50;;;21.50;99.90;;;;;;4980679;28;20811;-85
2021/07/25 01:53:35;;;;;;;6.97;6.47;;;21.60;99.90;;;;;;4977479;28;20570;-85
2021/07/25 01:56:01;;;;;;;7.33;6.73;;;21.60;99.90;;;;;;4977444;28;20574;-85
2021/07/25 01:58:27;;;;;;;7.77;7.17;;;21.50;99.90;;;;;;4994807;28;20254;-85
2021/07/25 02:00:53;;;;;;;7.00;5.90;;;21.60;99.90;;;;;;4994814;28;20689;-85
2021/07/25 02:03:26;;;;;;;7.13;6.43;;;21.50;99.90;;;;;;4994703;28;20562;-85
2021/07/25 02:05:52;;;;;;;7.87;7.20;;;21.50;99.90;;;;;;4978590;28;20970;-85
2021/07/25 02:08:19;;;;;;;7.57;6.77;;;21.50;99.90;;;;;;4977957;28;20578;-85
2021/07/25 02:10:52;;;;;;;8.17;7.37;;;21.40;99.90;;;;;;4979175;28;20613;-85
2021/07/25 02:13:20;;;;;;;7.53;6.90;;;21.30;99.90;;;;;;4995379;28;21200;-85
2021/07/25 02:15:46;;;;;;;7.57;6.80;;;21.20;99.90;;;;;;4980465;28;20577;-85
2021/07/25 02:18:12;;;;;;;6.90;6.30;;;21.10;99.90;;;;;;4979316;28;20582;-85
2021/07/25 02:20:41;;;;;;;7.63;6.90;;;21.10;99.90;;;;;;4976661;28;20648;-85
2021/07/25 02:23:07;;;;;;;7.20;6.60;;;21.10;99.90;;;;;;4994417;28;21122;-85
2021/07/25 02:25:34;;;;;;;7.27;5.73;;;21.00;99.90;;;;;;4994086;28;20570;-85
2021/07/25 02:28:00;;;;;;;6.77;6.07;;;21.00;99.90;;;;;;4976987;28;20597;-85
2021/07/25 02:30:26;;;;;;;7.17;6.13;;;20.90;99.90;;;;;;4960308;28;20602;-85
2021/07/25 02:32:52;;;;;;;5.73;5.17;;;20.90;99.90;;;;;;4977227;28;20618;-84
2021/07/25 02:35:18;;;;;;;10.00;6.00;;;20.80;99.90;;;;;;4994747;28;20175;-85
2021/07/25 02:37:43;;;;;;;5.33;4.90;;;20.70;99.90;;;;;;4995316;28;20586;-85
2021/07/25 02:40:11;;;;;;;5.60;5.10;;;20.70;99.90;;;;;;4994428;28;20175;-85
2021/07/25 02:42:36;;;;;;;6.23;5.63;;;20.60;99.90;;;;;;4994494;28;20504;-85
2021/07/25 02:45:02;;;;;;;5.63;5.13;;;20.50;99.90;;;;;;4978017;28;20625;-85
2021/07/25 02:47:28;;;;;;;6.40;4.73;;;20.50;99.90;;;;;;4962031;28;20590;-85
2021/07/25 02:49:54;;;;;;;5.83;5.30;;;20.50;99.90;;;;;;4962717;28;20221;-85
2021/07/25 02:52:19;;;;;;;5.70;5.10;;;20.40;99.90;;;;;;4994976;28;20729;-85
2021/07/25 02:54:45;;;;;;;8.53;5.20;;;20.30;99.90;;;;;;4997938;28;20656;-85
2021/07/25 02:57:11;;;;;;;6.53;5.37;;;20.20;99.90;;;;;;4976310;28;20187;-85
2021/07/25 02:59:36;;;;;;;7.53;5.90;;;20.20;99.90;;;;;;4976374;28;20186;-85
2021/07/25 03:02:02;;;;;;;5.77;5.27;;;20.20;99.90;;;;;;4960100;28;20195;-85
2021/07/25 03:04:28;;;;;;;6.20;5.53;;;20.10;99.90;;;;;;4976232;28;20535;-85
2021/07/25 03:06:54;;;;;;;6.73;5.30;;;20.10;99.90;;;;;;4976047;28;20175;-85
2021/07/25 03:09:19;;;;;;;5.83;5.33;;;20.10;99.90;;;;;;4976132;28;20543;-85
2021/07/25 03:11:45;;;;;;;5.20;4.73;;;20.10;99.90;;;;;;4959567;28;20241;-85
2021/07/25 03:14:11;;;;;;;6.23;5.63;;;20.10;99.90;;;;;;4993637;28;20246;-85
2021/07/25 03:16:36;;;;;;;5.40;4.90;;;20.00;99.90;;;;;;4961541;28;20202;-85
2021/07/25 03:19:02;;;;;;;6.27;5.10;;;20.00;99.90;;;;;;4993310;28;20175;-85
2021/07/25 03:21:28;;;;;;;7.13;5.97;;;20.00;99.90;;;;;;4975769;28;20573;-85
2021/07/25 03:23:54;;;;;;;6.77;6.03;;;19.90;99.90;;;;;;4993726;28;20171;-85
2021/07/25 03:26:19;;;;;;;6.10;5.50;;;19.90;99.90;;;;;;4993583;28;20609;-85
2021/07/25 03:28:46;;;;;;;9.77;5.53;;;19.90;99.90;;;;;;4976346;28;20175;-85
2021/07/25 03:31:12;;;;;;;7.17;6.30;;;19.90;99.90;;;;;;4998003;28;20210;-85
2021/07/25 03:33:37;;;;;;;14.30;5.77;;;19.80;99.90;;;;;;4992921;28;20566;-85
2021/07/25 03:36:03;;;;;;;7.50;6.30;;;19.80;99.90;;;;;;4993044;28;20562;-86
2021/07/25 03:38:32;;;;;;;6.30;5.33;;;19.80;99.90;;;;;;4979847;28;20163;-84
2021/07/25 03:41:02;;;;;;;5.60;5.10;;;19.70;99.90;;;;;;4999679;28;21158;-85
2021/07/25 03:43:31;;;;;;;6.20;5.27;;;19.80;99.90;;;;;;4993199;28;20625;-86
2021/07/25 03:46:00;;;;;;;6.57;5.40;;;19.70;99.90;;;;;;4996002;28;20599;-86
2021/07/25 03:48:27;;;;;;;6.37;5.77;;;19.70;99.90;;;;;;4995456;28;20570;-86
2021/07/25 03:50:53;;;;;;;5.97;5.40;;;19.70;99.90;;;;;;4977496;28;20602;-86
2021/07/25 03:53:19;;;;;;;5.30;4.87;;;19.60;99.90;;;;;;4995336;28;21170;-84
2021/07/25 03:55:45;;;;;;;7.27;6.57;;;19.60;99.90;;;;;;4965175;28;20590;-85
2021/07/25 03:58:11;;;;;;;6.37;5.77;;;19.60;99.90;;;;;;4975725;28;21013;-85
2021/07/25 04:00:37;;;;;;;6.33;5.73;;;19.50;99.90;;;;;;4979713;28;20618;-85
2021/07/25 04:03:03;;;;;;;7.73;6.57;;;19.50;99.90;;;;;;4961545;28;20581;-85
2021/07/25 04:05:29;;;;;;;8.33;5.80;;;19.50;99.90;;;;;;4986395;28;20543;-85
2021/07/25 04:07:55;;;;;;;6.97;6.23;;;19.50;99.90;;;;;;4997205;28;20169;-84
2021/07/25 04:10:21;;;;;;;7.37;6.10;;;19.60;99.90;;;;;;5016097;28;20594;-84
2021/07/25 04:12:48;;;;;;;6.20;5.60;;;19.50;99.90;;;;;;4999175;28;20222;-84
2021/07/25 04:15:13;;;;;;;6.37;5.23;;;19.50;99.90;;;;;;4999285;28;20642;-85
2021/07/25 04:17:39;;;;;;;8.70;6.43;;;19.50;99.90;;;;;;4999048;28;20559;-86
2021/07/25 04:20:06;;;;;;;6.20;5.60;;;19.60;99.90;;;;;;4968101;28;20573;-83
2021/07/25 04:22:36;;;;;;;9.40;5.00;;;19.60;99.90;;;;;;4997285;28;20170;-86
2021/07/25 04:25:04;;;;;;;7.27;6.23;;;19.50;99.90;;;;;;4996979;28;20566;-84
2021/07/25 04:27:30;;;;;;;7.67;6.97;;;19.50;99.90;;;;;;4997456;28;20642;-84
2021/07/25 04:29:57;;;;;;;8.67;6.20;;;19.50;99.90;;;;;;4979768;28;20574;-84
2021/07/25 04:32:23;;;;;;;6.60;6.10;;;19.50;99.90;;;;;;4995175;28;20649;-84
2021/07/25 04:34:49;;;;;;;10.67;6.80;;;19.50;99.90;;;;;;4975739;28;20570;-84
2021/07/25 04:37:29;;;;;;;11.10;8.00;;;19.50;99.90;;;;;;4975406;28;20625;-84
2021/07/25 04:39:55;;;;;;;7.77;7.07;;;19.50;99.90;;;;;;4959121;28;20606;-84
2021/07/25 04:42:23;;;;;;;7.20;6.50;;;19.60;99.90;;;;;;4992028;28;20570;-84
2021/07/25 04:44:54;;;;;;;14.10;7.60;;;19.50;99.90;;;;;;4980348;28;20669;-84
2021/07/25 04:47:23;;;;;;;8.47;7.67;;;19.50;99.90;;;;;;4959412;28;21125;-84
2021/07/25 04:50:03;;;;;;;8.90;8.00;;;19.60;99.90;;;;;;4992287;28;20980;-84
2021/07/25 04:52:37;;;;;;;9.30;8.37;;;19.60;99.90;;;;;;4975219;28;21352;-84
2021/07/25 04:55:06;;;;;;;10.50;9.50;;;19.60;99.90;;;;;;4974951;28;20562;-84
2021/07/25 04:57:43;;;;;;;13.93;10.90;;;19.60;99.90;;;;;;4958703;28;20690;-84
2021/07/25 05:00:13;;;;;;;9.33;8.40;;;19.60;99.90;;;;;;4992666;28;20597;-84
2021/07/25 05:02:40;;;;;;;11.60;9.20;;;19.70;99.90;;;;;;4974988;28;21157;-84
2021/07/25 05:05:07;;;;;;;10.93;9.83;;;19.90;99.90;;;;;;4958952;28;20578;-84
2021/07/25 05:07:37;;;;;;;11.07;9.13;;;20.00;99.90;;;;;;4976426;28;20570;-84
2021/07/25 05:10:03;;;;;;;8.97;8.07;;;20.00;99.90;;;;;;4993066;28;20669;-84
2021/07/25 05:12:32;;;;;;;10.50;9.20;;;20.10;99.90;;;;;;4992263;28;20947;-84
2021/07/25 05:15:03;;;;;;;10.10;9.10;;;20.10;99.90;;;;;;4974656;28;20676;-84
2021/07/25 05:17:39;;;;;;;9.03;8.17;;;20.10;99.90;;;;;;4995991;28;20570;-84
2021/07/25 05:20:08;;;;;;;8.03;7.23;;;20.10;99.90;;;;;;4984383;28;20566;-85
2021/07/25 05:22:49;;;;;;;8.03;7.30;;;20.10;99.90;;;;;;4979336;28;20566;-85
2021/07/25 05:25:17;;;;;;;10.27;7.80;;;20.10;99.90;;;;;;4978225;28;20578;-84
2021/07/25 05:27:48;;;;;;;9.23;8.33;;;20.20;99.90;;;;;;4978487;28;21023;-83
2021/07/25 05:30:17;;;;;;;8.23;7.43;;;20.20;99.90;;;;;;4995796;28;20663;-84
2021/07/25 05:32:43;;;;;;;9.27;8.37;;;20.30;99.90;;;;;;4995618;28;20635;-84
2021/07/25 05:35:10;;;;;;;7.63;6.93;;;20.30;99.90;;;;;;4995884;28;21173;-84
2021/07/25 05:37:36;;;;;;;7.77;6.93;;;20.40;99.90;;;;;;4978069;28;20586;-84
2021/07/25 05:40:02;;;;;;;7.90;7.23;;;20.60;99.90;;;;;;4995427;28;20574;-84
2021/07/25 05:42:31;;;;;;;7.70;7.00;;;20.70;99.90;;;;;;4978407;28;20578;-84
2021/07/25 05:44:57;;;;;;;7.77;7.07;;;20.80;99.90;;;;;;4995065;28;20574;-84
2021/07/25 05:47:23;;;;;;;8.10;7.30;;;20.80;99.90;;;;;;4995319;28;20661;-84
2021/07/25 05:49:48;;;;;;;8.03;7.23;;;20.90;99.90;;;;;;4961994;28;20598;-84
2021/07/25 05:52:14;;;;;;;6.67;6.00;;;20.90;99.90;;;;;;4995612;28;20201;-84
2021/07/25 05:54:41;;;;;;;8.57;7.67;;;20.90;99.90;;;;;;4996141;28;20194;-83
2021/07/25 05:57:08;;;;;;;6.73;6.13;;;21.00;99.90;;;;;;4983683;28;20665;-83
2021/07/25 05:59:33;;;;;;;7.63;6.93;;;21.30;99.90;;;;;;4984202;28;20575;-83
2021/07/25 06:02:03;;;;;;;8.17;6.67;;;21.80;99.90;;;;;;4977603;28;20621;-83
2021/07/25 06:04:29;;;;;;;5.73;5.30;;;22.40;99.90;;;;;;4994961;28;20182;-83
2021/07/25 06:06:56;;;;;;;7.33;6.73;;;23.20;99.90;;;;;;4977994;28;20976;-83
2021/07/25 06:09:23;;;;;;;6.00;5.50;;;24.00;99.90;;;;;;4977525;28;21040;-84
2021/07/25 06:11:49;;;;;;;5.97;5.40;;;24.90;99.90;;;;;;4976820;28;21034;-83
2021/07/25 06:14:14;;;;;;;6.23;5.67;;;25.60;99.90;;;;;;4994453;28;20574;-83
2021/07/25 06:16:40;;;;;;;5.93;5.43;;;26.30;99.90;;;;;;4976751;28;20570;-83
2021/07/25 06:19:06;;;;;;;5.53;5.03;;;27.00;99.90;;;;;;4976560;28;20182;-83
2021/07/25 06:21:32;;;;;;;5.20;4.80;;;27.70;99.90;;;;;;4976571;28;20195;-83
2021/07/25 06:23:58;;;;;;;5.50;5.07;;;28.50;99.90;;;;;;4976211;28;20183;-83
2021/07/25 06:26:24;;;;;;;4.40;4.10;;;29.20;99.90;;;;;;4994592;28;20168;-84
2021/07/25 06:28:50;;;;;;;4.67;3.87;;;29.90;99.90;;;;;;4993917;28;20585;-84
2021/07/25 06:31:16;;;;;;;5.53;4.27;;;30.40;99.90;;;;;;4976515;28;20207;-83
2021/07/25 06:33:42;;;;;;;3.40;3.03;;;31.20;99.90;;;;;;4998112;28;20671;-84
2021/07/25 06:36:12;;;;;;;5.90;4.00;;;31.70;99.90;;;;;;4976777;28;20172;-84
2021/07/25 06:38:39;;;;;;;3.80;3.50;;;32.10;99.90;;;;;;4994084;28;20168;-84
2021/07/25 06:41:06;;;;;;;4.23;3.87;;;32.30;99.90;;;;;;4992450;28;20594;-84
2021/07/25 06:43:33;;;;;;;4.30;3.50;;;32.60;99.90;;;;;;4993577;28;20568;-84
2021/07/25 06:45:58;;;;;;;4.00;3.70;;;32.90;99.90;;;;;;4976055;28;20619;-84
2021/07/25 06:48:29;;;;;;;2.73;2.53;;;33.40;99.90;;;;;;4993529;28;21119;-84
2021/07/25 06:50:57;;;;;;;4.30;2.40;;;33.90;99.90;;;;;;4993901;28;20674;-85
2021/07/25 06:53:24;;;;;;;2.80;2.47;;;34.60;99.90;;;;;;4976429;28;20660;-85
2021/07/25 06:55:52;;;;;;;2.50;2.30;;;35.00;99.90;;;;;;4993475;28;20991;-84
2021/07/25 06:58:19;;;;;;;3.50;2.03;;;35.50;99.90;;;;;;4976458;28;20657;-84
2021/07/25 07:00:45;;;;;;;2.30;1.97;;;36.10;99.90;;;;;;4993346;28;20999;-85
2021/07/25 07:03:10;;;;;;;4.10;2.90;;;36.70;99.90;;;;;;4975942;28;20582;-85
2021/07/25 07:05:36;;;;;;;2.43;2.23;;;36.70;99.90;;;;;;4993450;28;20575;-84
2021/07/25 07:08:05;;;;;;;3.10;2.80;;;36.50;99.90;;;;;;4993400;28;20228;-84
2021/07/25 07:10:33;;;;;;;2.73;2.13;;;36.40;97.70;;;;;;4998990;28;20221;-84
2021/07/25 07:13:06;;;;;;;3.30;3.00;;;36.60;97.50;;;;;;4960116;28;20641;-85
2021/07/25 07:15:34;;;;;;;4.43;3.13;;;36.40;94.60;;;;;;4976195;28;20574;-85
2021/07/25 07:18:00;;;;;;;2.57;2.10;;;36.00;94.50;;;;;;4992888;28;20566;-85
2021/07/25 07:20:27;;;;;;;4.40;2.27;;;35.90;94.50;;;;;;4971767;28;21268;-85
2021/07/25 07:22:54;;;;;;;3.60;2.13;;;35.70;93.30;;;;;;4929324;29;20584;-85
2021/07/25 07:25:21;;;;;;;2.70;1.93;;;35.60;93.50;;;;;;4989531;28;20574;-86
2021/07/25 07:27:47;;;;;;;2.70;1.70;;;35.90;94.30;;;;;;4992787;28;20565;-85
2021/07/25 07:30:13;;;;;;;3.10;2.80;;;36.30;94.20;;;;;;4992455;28;20562;-86
2021/07/25 07:32:39;;;;;;;3.30;2.70;;;36.70;94.00;;;;;;4993079;28;20669;-86
2021/07/25 07:35:05;;;;;;;3.60;2.50;;;37.00;92.90;;;;;;4992644;28;20598;-84
2021/07/25 07:37:30;;;;;;;2.60;2.33;;;37.20;92.00;;;;;;4975164;28;20167;-86
2021/07/25 07:39:56;;;;;;;3.30;2.03;;;37.30;91.20;;;;;;4974539;28;20673;-86
2021/07/25 07:42:22;;;;;;;2.83;2.63;;;37.30;90.50;;;;;;4975477;28;20210;-86
2021/07/25 07:44:48;;;;;;;5.00;2.70;;;37.50;88.70;;;;;;4992834;28;20225;-84
2021/07/25 07:47:14;;;;;;;2.20;2.00;;;37.70;88.50;;;;;;4980150;28;20182;-84
2021/07/25 07:49:40;;;;;;;2.93;2.63;;;38.10;87.90;;;;;;4992765;28;20566;-84
2021/07/25 07:52:06;;;;;;;3.20;2.90;;;38.50;86.30;;;;;;4975444;28;20648;-83
2021/07/25 07:54:32;;;;;;;4.17;2.50;;;38.60;81.80;;;;;;4993417;28;20175;-84
2021/07/25 07:56:58;;;;;;;3.00;2.17;;;38.70;81.80;;;;;;4975807;28;20575;-86
2021/07/25 07:59:24;;;;;;;2.73;2.53;;;38.70;78.10;;;;;;4994555;28;20554;-85
2021/07/25 08:01:52;;;;;;;2.10;1.90;;;38.80;78.70;;;;;;4960600;28;20953;-86
2021/07/25 08:04:17;;;;;;;3.50;2.40;;;39.10;77.80;;;;;;4994151;28;20562;-86
2021/07/25 08:06:45;;;;;;;2.83;2.13;;;39.00;75.30;;;;;;4975619;28;20579;-86
2021/07/25 08:09:12;;;;;;;2.33;2.13;;;38.90;73.90;;;;;;4992923;28;20591;-83
2021/07/25 08:11:43;;;;;;;2.93;1.70;;;39.10;73.20;;;;;;4992858;28;20646;-84
2021/07/25 08:14:10;;;;;;;2.63;2.43;;;39.20;71.80;;;;;;4960301;28;20598;-85
2021/07/25 08:16:36;;;;;;;3.00;1.70;;;39.30;70.50;;;;;;4993402;28;20567;-85
2021/07/25 08:19:02;;;;;;;2.10;1.90;;;39.20;69.70;;;;;;4975677;28;20931;-85
2021/07/25 08:22:28;;;;;;;2.60;1.83;;;39.40;69.00;;;;;;4992733;28;20179;-84
2021/07/25 08:24:24;;;;;;;3.10;1.73;;;39.50;68.80;;;;;;4981331;28;20594;-85
2021/07/25 08:26:50;;;;;;;2.50;2.20;;;40.00;69.00;;;;;;4959161;28;20579;-85
2021/07/25 08:29:15;;;;;;;2.60;1.60;;;40.40;67.80;;;;;;4975765;28;20194;-85
2021/07/25 08:31:41;;;;;;;2.87;2.10;;;40.80;67.20;;;;;;4974868;28;20733;-85
2021/07/25 08:34:07;;;;;;;2.67;2.27;;;40.90;62.20;;;;;;4959346;28;20266;-85
2021/07/25 08:36:32;;;;;;;2.13;1.93;;;41.00;61.80;;;;;;4992617;28;20167;-85
2021/07/25 08:38:59;;;;;;;1.90;1.30;;;41.20;61.40;;;;;;4976086;28;20242;-85
2021/07/25 08:41:34;;;;;;;2.13;1.87;;;41.40;60.80;;;;;;4982097;28;20703;-85
2021/07/25 08:44:13;;;;;;;2.23;1.70;;;41.40;59.90;;;;;;4971056;28;20241;-85
2021/07/25 08:46:39;;;;;;;2.10;1.53;;;41.40;58.40;;;;;;4980419;28;20593;-85
2021/07/25 08:49:16;;;;;;;1.73;1.20;;;41.00;57.70;;;;;;4982038;28;20579;-85
2021/07/25 08:51:49;;;;;;;1.60;1.20;;;41.00;57.60;;;;;;4950268;28;20616;-85
2021/07/25 08:54:18;;;;;;;1.60;1.13;;;41.20;57.60;;;;;;4988157;28;21171;-85
2021/07/25 08:56:46;;;;;;;1.50;1.00;;;41.50;57.60;;;;;;4952196;28;20597;-85
2021/07/25 08:59:15;;;;;;;2.07;1.30;;;41.90;57.00;;;;;;4987740;28;20608;-85
2021/07/25 09:01:41;;;;;;;2.37;1.10;;;42.30;56.30;;;;;;4955174;28;20736;-85
2021/07/25 09:04:07;;;;;;;1.87;1.00;;;42.50;55.00;;;;;;4995933;28;20724;-85
2021/07/25 09:06:48;;;;;;;1.97;1.30;;;42.60;54.80;;;;;;4995819;28;20693;-85
2021/07/25 09:09:15;;;;;;;1.40;1.10;;;42.90;54.10;;;;;;4980077;28;20586;-85
2021/07/25 09:11:40;;;;;;;1.63;1.10;;;43.10;52.40;;;;;;5002433;28;20613;-85
2021/07/25 09:14:06;;;;;;;1.90;1.03;;;43.40;52.80;;;;;;4978404;28;20673;-86
2021/07/25 09:16:34;;;;;;;1.40;0.97;;;43.60;52.50;;;;;;4962146;28;20635;-86
2021/07/25 09:19:00;;;;;;;1.33;1.00;;;43.90;52.20;;;;;;4995298;28;20564;-86
2021/07/25 09:21:46;;;;;;;2.37;1.43;;;44.20;51.30;;;;;;4995496;28;20609;-86
2021/07/25 09:24:26;;;;;;;1.90;1.27;;;44.50;51.60;;;;;;4995733;28;20578;-86
2021/07/25 09:27:06;;;;;;;1.70;1.10;;;44.80;48.60;;;;;;4997131;28;20577;-86
2021/07/25 09:29:36;;;;;;;2.60;1.00;;;44.90;48.60;;;;;;4995578;28;20661;-86
2021/07/25 09:32:09;;;;;;;1.93;1.20;;;44.60;47.70;;;;;;4977957;28;20617;-85
2021/07/25 09:34:44;;;;;;;1.70;1.07;;;44.50;47.90;;;;;;4977807;28;20578;-86
2021/07/25 09:37:16;;;;;;;2.60;0.90;;;44.40;47.40;;;;;;5000231;28;20578;-85
2021/07/25 09:39:45;;;;;;;1.90;1.17;;;44.30;46.80;;;;;;4980284;28;20609;-86
2021/07/25 09:42:12;;;;;;;1.80;0.90;;;44.00;46.70;;;;;;4995278;28;21201;-86
2021/07/25 09:44:53;;;;;;;2.20;1.30;;;43.50;45.90;;;;;;4996628;28;20558;-86
2021/07/25 09:47:30;;;;;;;1.70;1.30;;;42.80;46.10;;;;;;4977890;28;20672;-86
2021/07/25 09:49:57;;;;;;;1.50;1.10;;;41.90;45.60;;;;;;4977529;28;20689;-85
2021/07/25 09:52:33;;;;;;;3.20;1.50;;;41.00;45.60;;;;;;4996376;28;20617;-86
2021/07/25 09:55:00;;;;;;;1.60;1.40;;;40.20;46.40;;;;;;5014329;22;21229;-79
2021/07/25 09:57:27;;;;;;;1.50;1.10;;;39.30;46.80;;;;;;4952081;28;20615;-80
2021/07/25 09:59:58;;;;;;;3.97;1.10;;;38.40;47.10;;;;;;4991781;28;20594;-80
2021/07/25 10:02:32;;;;;;;1.90;1.03;;;37.70;47.80;;;;;;4985576;28;20672;-78
2021/07/25 10:05:19;;;;;;;2.97;1.53;;;36.90;48.50;;;;;;4994046;28;20728;-80
2021/07/25 10:07:46;;;;;;;1.60;1.47;;;36.20;49.40;;;;;;4960815;28;20574;-80
2021/07/25 10:10:14;;;;;;;3.20;1.50;;;35.60;49.90;;;;;;4993664;28;20576;-81
2021/07/25 10:12:42;;;;;;;1.77;1.33;;;35.10;50.80;;;;;;4960919;28;20587;-80
2021/07/25 10:15:11;;;;;;;2.67;1.63;;;34.60;51.60;;;;;;4944473;28;20670;-80
2021/07/25 10:17:39;;;;;;;1.50;1.40;;;34.20;52.00;;;;;;4997873;28;20563;-80
2021/07/25 10:20:11;;;;;;;1.77;1.43;;;33.80;52.40;;;;;;4994042;28;20564;-81
2021/07/25 10:22:38;;;;;;;3.33;2.27;;;33.50;52.80;;;;;;4976871;28;20638;-79
2021/07/25 10:25:07;;;;;;;1.90;1.50;;;33.00;53.10;;;;;;4944181;28;20622;-80
2021/07/25 10:27:34;;;;;;;1.93;1.10;;;32.60;53.40;;;;;;4960419;28;20593;-80
2021/07/25 10:30:14;;;;;;;1.70;1.30;;;32.60;55.10;;;;;;4959834;28;21146;-80
2021/07/25 10:32:42;;;;;;;3.20;1.27;;;33.10;56.00;;;;;;4976327;28;20574;-80
2021/07/25 10:35:10;;;;;;;3.43;1.30;;;33.80;57.10;;;;;;4960013;28;20641;-80
2021/07/25 10:37:37;;;;;;;2.80;1.00;;;34.60;57.00;;;;;;4975977;28;20641;-80
2021/07/25 10:40:06;;;;;;;2.50;1.30;;;35.40;57.40;;;;;;4976097;28;20910;-80
2021/07/25 10:42:37;;;;;;;2.07;1.33;;;36.30;57.60;;;;;;4975791;28;21299;-80
2021/07/25 10:45:04;;;;;;;3.03;1.67;;;37.30;57.10;;;;;;4976268;28;20601;-80
2021/07/25 10:47:31;;;;;;;1.40;1.00;;;38.20;55.70;;;;;;4993390;28;20585;-79
2021/07/25 10:50:06;;;;;;;1.73;1.10;;;38.50;53.30;;;;;;4975693;28;20578;-79
2021/07/25 10:55:34;;;;;;;2.50;1.30;;;38.30;51.30;;;;;;4978752;28;21029;-79
2021/07/25 10:58:09;;;;;;;2.13;1.00;;;38.00;51.40;;;;;;4992981;28;20573;-79
2021/07/25 11:00:39;;;;;;;2.30;1.20;;;37.90;51.60;;;;;;4992998;28;20569;-79
2021/07/25 11:03:06;;;;;;;1.67;1.23;;;37.80;51.10;;;;;;4975669;28;20629;-79
2021/07/25 11:05:32;;;;;;;2.10;1.37;;;37.50;51.30;;;;;;4959330;28;20705;-80
2021/07/25 11:07:59;;;;;;;2.20;1.67;;;37.20;50.80;;;;;;4975591;28;20673;-80
2021/07/25 11:10:33;;;;;;;1.70;1.37;;;36.50;50.70;;;;;;4992795;28;20222;-80
2021/07/25 11:13:02;;;;;;;1.97;1.40;;;36.20;51.40;;;;;;4974710;28;20582;-80
2021/07/25 11:15:37;;;;;;;4.27;1.53;;;35.70;51.50;;;;;;4959036;28;20664;-80
2021/07/25 11:18:12;;;;;;;2.57;1.63;;;35.40;52.00;;;;;;4959324;28;20973;-80
2021/07/25 11:20:40;;;;;;;2.40;1.43;;;34.90;52.10;;;;;;4975306;28;20668;-80
2021/07/25 11:23:10;;;;;;;1.83;1.00;;;34.60;52.20;;;;;;4943238;28;20633;-81
2021/07/25 11:25:36;;;;;;;2.27;1.10;;;34.20;52.60;;;;;;4959665;28;20963;-80
2021/07/25 11:28:07;;;;;;;2.77;1.27;;;33.90;52.70;;;;;;4975971;28;20598;-79
2021/07/25 11:30:48;;;;;;;1.90;1.17;;;33.60;53.30;;;;;;5000455;28;20594;-79
2021/07/25 11:33:39;;;;;;;3.00;1.30;;;33.30;53.80;;;;;;4976354;28;20578;-79
2021/07/25 11:36:08;;;;;;;2.90;1.50;;;33.10;54.30;;;;;;4959693;28;21172;-80
2021/07/25 11:38:35;;;;;;;1.57;1.00;;;32.80;54.60;;;;;;4975917;28;20620;-80
2021/07/25 11:41:01;;;;;;;2.63;1.20;;;32.60;54.70;;;;;;4992637;28;20575;-80
2021/07/25 11:43:56;;;;;;;2.50;1.10;;;32.30;55.20;;;;;;4958941;28;20971;-80
2021/07/25 11:46:22;;;;;;;2.40;1.40;;;32.10;56.10;;;;;;4992357;28;20594;-80
2021/07/25 11:48:59;;;;;;;2.37;1.43;;;31.80;55.80;;;;;;4975306;28;20624;-80
2021/07/25 11:51:25;;;;;;;1.60;1.20;;;31.70;56.50;;;;;;4975011;28;20221;-80
2021/07/25 11:53:51;;;;;;;2.90;1.20;;;31.70;57.90;;;;;;4975010;28;20614;-80
2021/07/25 11:56:17;;;;;;;2.10;1.20;;;31.90;58.80;;;;;;4992237;28;20296;-80
2021/07/25 11:59:05;;;;;;;2.23;1.30;;;32.20;58.90;;;;;;4942953;28;20197;-81
2021/07/25 12:01:33;;;;;;;1.90;1.10;;;32.30;58.10;;;;;;4992029;28;20163;-80
2021/07/25 12:04:00;;;;;;;3.00;1.60;;;32.40;57.80;;;;;;4993058;28;20678;-79
2021/07/25 12:06:27;;;;;;;2.03;1.47;;;32.50;58.10;;;;;;4968388;28;20768;-79
2021/07/25 12:09:06;;;;;;;1.83;1.37;;;32.60;58.70;;;;;;4992482;28;20719;-79
2021/07/25 12:11:33;;;;;;;4.67;1.47;;;32.70;59.00;;;;;;4958873;28;20580;-80
2021/07/25 12:13:59;;;;;;;2.17;1.50;;;32.80;58.10;;;;;;4975034;28;21119;-79
2021/07/25 12:16:25;;;;;;;1.90;1.50;;;32.90;58.10;;;;;;4974769;28;20634;-80
2021/07/25 12:18:51;;;;;;;1.80;1.27;;;32.90;57.80;;;;;;4958858;28;20678;-81
2021/07/25 12:21:31;;;;;;;2.50;1.30;;;32.90;57.30;;;;;;4958888;28;20201;-80
2021/07/25 12:23:58;;;;;;;2.33;1.20;;;32.90;56.70;;;;;;4992702;28;20990;-80
2021/07/25 12:26:40;;;;;;;1.50;0.80;;;32.90;56.70;;;;;;4978539;28;21194;-81
2021/07/25 12:29:38;;;;;;;1.83;0.90;;;32.90;56.10;;;;;;4946552;28;20688;-80
2021/07/25 12:32:25;;;;;;;1.40;0.90;;;32.90;55.90;;;;;;4962418;28;20680;-80
2021/07/25 12:35:11;;;;;;;3.10;1.10;;;32.80;56.00;;;;;;4978364;28;20608;-80
2021/07/25 12:37:48;;;;;;;1.50;0.87;;;32.90;55.80;;;;;;4978426;28;20578;-80
2021/07/25 12:40:21;;;;;;;1.50;0.93;;;32.90;55.50;;;;;;4978398;28;20646;-80
2021/07/25 12:42:56;;;;;;;1.33;0.87;;;32.90;55.90;;;;;;4997434;28;20615;-80
2021/07/25 12:45:29;;;;;;;1.70;0.90;;;33.00;55.20;;;;;;4975046;28;20656;-80
2021/07/25 12:48:20;;;;;;;3.00;1.00;;;33.10;54.70;;;;;;4932067;28;20678;-80
2021/07/25 12:51:19;;;;;;;1.43;0.70;;;33.00;54.90;;;;;;4974851;28;20671;-80
2021/07/25 12:54:05;;;;;;;2.07;1.00;;;33.00;54.10;;;;;;4976681;28;20842;-80
2021/07/25 12:56:33;;;;;;;2.17;1.00;;;32.90;53.00;;;;;;4958746;28;20771;-80
2021/07/25 12:59:02;;;;;;;2.40;1.07;;;32.80;53.90;;;;;;4977815;28;20615;-81